Time;durP1;ratioP1;P1;durP2;ratioP2;P2;SDS_P1;SDS_P2;PMS_P1;PMS_P2;Temp;Humidity;BMP_temperature;BMP_pressure;BME280_temperature;BME280_humidity;BME280_pressure;Samples;Min_cycle;Max_cycle;Signal;HPM_P1;HPM_P2
2022/01/18 00:00:39;;;;;;;3.22;2.25;;;;;;;6.04;39.34;101650.38;5050634;28;20508;-69
2022/01/18 00:03:07;;;;;;;3.45;2.22;;;;;;;6.07;39.42;101681.81;5050603;28;20891;-69
2022/01/18 00:05:35;;;;;;;3.58;2.83;;;;;;;6.14;39.14;101698.16;5050676;28;20504;-69
2022/01/18 00:08:02;;;;;;;3.65;2.67;;;;;;;6.10;39.45;101710.59;5050675;28;20496;-69
2022/01/18 00:10:31;;;;;;;3.43;2.37;;;;;;;6.05;39.38;101728.41;5050927;28;20444;-69
2022/01/18 00:13:22;;;;;;;5.43;3.88;;;;;;;6.05;39.13;101743.34;5049850;28;20412;-69
2022/01/18 00:16:08;;;;;;;6.43;3.92;;;;;;;5.99;39.09;101747.94;5050026;28;20416;-69
2022/01/18 00:18:37;;;;;;;5.28;2.85;;;;;;;5.78;37.88;101749.78;5033149;28;20802;-69
2022/01/18 00:21:23;;;;;;;3.40;2.10;;;;;;;5.89;37.41;101749.28;5050268;28;20447;-69
2022/01/18 00:23:54;;;;;;;2.50;1.80;;;;;;;5.89;37.54;101748.44;5050487;28;20499;-69
2022/01/18 00:26:22;;;;;;;4.05;2.22;;;;;;;5.80;37.65;101750.56;5050574;28;20416;-69
2022/01/18 00:28:53;;;;;;;3.75;1.98;;;;;;;5.76;37.74;101756.03;5050140;28;20495;-69
2022/01/18 00:31:47;;;;;;;2.92;1.98;;;;;;;5.71;38.00;101792.19;5050034;28;20419;-69
2022/01/18 00:34:20;;;;;;;3.13;2.28;;;;;;;5.77;37.25;101819.06;5050368;28;20416;-69
2022/01/18 00:36:59;;;;;;;3.25;2.22;;;;;;;5.77;37.33;101834.84;5048959;28;20424;-70
2022/01/18 00:39:27;;;;;;;2.97;2.20;;;;;;;5.62;37.30;101832.91;5049971;28;20438;-69
2022/01/18 00:41:54;;;;;;;4.50;3.30;;;;;;;5.54;36.80;101824.50;5049661;28;20496;-69
2022/01/18 00:44:21;;;;;;;1.95;1.35;;;;;;;5.56;35.89;101830.56;5050221;28;20444;-70
2022/01/18 00:46:48;;;;;;;2.25;1.30;;;;;;;5.60;35.20;101832.13;5050447;28;20492;-69
2022/01/18 00:49:15;;;;;;;2.33;1.38;;;;;;;5.58;34.56;101847.94;5049961;28;20459;-69
2022/01/18 00:51:48;;;;;;;3.08;1.33;;;;;;;5.59;33.98;101843.53;5050066;28;20491;-69
2022/01/18 00:54:22;;;;;;;2.70;1.20;;;;;;;5.66;33.68;101837.09;5048787;28;20419;-68
2022/01/18 00:56:52;;;;;;;2.08;1.30;;;;;;;5.67;33.30;101848.47;5048516;28;20412;-69
2022/01/18 00:59:20;;;;;;;2.70;1.40;;;;;;;5.72;33.47;101843.88;5049601;28;20432;-69
2022/01/18 01:01:47;;;;;;;3.50;1.60;;;;;;;5.62;33.44;101844.28;5049740;28;20412;-69
2022/01/18 01:04:15;;;;;;;4.45;1.55;;;;;;;5.72;33.26;101855.25;5049956;28;20499;-70
2022/01/18 01:06:42;;;;;;;3.00;1.30;;;;;;;5.72;33.23;101867.53;5049780;28;20419;-69
2022/01/18 01:09:08;;;;;;;3.33;1.42;;;;;;;5.71;33.46;101874.56;5049498;28;20910;-69
2022/01/18 01:11:39;;;;;;;2.67;1.50;;;;;;;5.71;33.23;101882.44;5049405;28;20420;-69
2022/01/18 01:14:09;;;;;;;2.00;1.30;;;;;;;5.71;33.25;101895.59;5049465;28;20412;-69
2022/01/18 01:19:40;;;;;;;2.47;1.35;;;;;;;5.71;33.26;101882.44;5042303;28;20807;-70
2022/01/18 01:44:19;;;;;;;2.15;1.50;;;;;;;5.15;36.51;101904.97;5048875;28;20554;-69
2022/01/18 01:46:46;;;;;;;2.60;1.77;;;;;;;5.12;36.61;101904.22;5048767;28;20998;-69
2022/01/18 01:49:13;;;;;;;3.03;1.90;;;;;;;5.12;36.69;101896.34;5048083;28;20421;-69
2022/01/18 01:51:40;;;;;;;2.10;1.60;;;;;;;5.16;36.44;101906.66;5048134;28;20948;-68
2022/01/18 01:54:10;;;;;;;3.03;1.63;;;;;;;5.11;36.43;101902.50;5050162;28;20906;-69
2022/01/18 01:56:37;;;;;;;2.87;1.80;;;;;;;5.10;36.66;101911.31;5049019;28;20787;-70
2022/01/18 01:59:06;;;;;;;3.67;1.90;;;;;;;4.96;37.03;101909.25;5049283;28;20450;-69
2022/01/18 02:01:41;;;;;;;3.50;1.90;;;;;;;5.04;36.92;101914.19;5049077;28;20497;-69
2022/01/18 02:04:08;;;;;;;3.42;1.80;;;;;;;5.07;36.71;101924.56;5049007;28;20420;-69
2022/01/18 02:06:35;;;;;;;2.90;1.77;;;;;;;4.90;36.82;101927.88;5048883;28;21005;-68
2022/01/18 02:09:02;;;;;;;2.40;1.67;;;;;;;4.82;37.07;101933.41;5049328;28;20412;-69
2022/01/18 02:11:29;;;;;;;2.95;1.40;;;;;;;4.79;37.22;101936.19;5048891;28;20858;-69
2022/01/18 02:13:57;;;;;;;2.40;1.50;;;;;;;4.87;36.84;101933.25;5049293;28;20416;-69
2022/01/18 02:21:56;;;;;;;2.28;1.55;;;;;;;4.86;37.02;101948.13;5048822;28;20412;-69
2022/01/18 02:24:24;;;;;;;2.92;1.60;;;;;;;4.80;37.15;101954.47;5049067;28;20432;-69
2022/01/18 02:26:52;;;;;;;3.78;1.92;;;;;;;4.76;36.94;101968.63;5048559;28;20417;-69
2022/01/18 02:29:19;;;;;;;2.38;1.50;;;;;;;4.73;37.35;101973.16;5048959;28;20444;-69
2022/01/18 02:31:47;;;;;;;2.08;1.30;;;;;;;4.73;37.28;101967.91;5049007;28;20416;-69
2022/01/18 02:34:16;;;;;;;3.08;1.52;;;;;;;4.75;37.15;101973.97;5048666;28;20930;-69
2022/01/18 02:36:43;;;;;;;3.33;1.40;;;;;;;4.76;37.08;101973.03;5048935;28;20412;-70
2022/01/18 02:39:13;;;;;;;2.55;1.50;;;;;;;4.78;36.92;101974.69;5051199;28;20432;-69
2022/01/18 02:41:40;;;;;;;2.80;1.70;;;;;;;4.77;37.48;101980.00;5052179;28;20933;-69
2022/01/18 02:44:09;;;;;;;2.75;1.42;;;;;;;4.72;37.42;101977.53;5052495;28;20408;-68
2022/01/18 02:46:38;;;;;;;2.67;1.38;;;;;;;4.67;37.70;101979.50;5052443;28;20408;-69
2022/01/18 02:49:06;;;;;;;3.42;1.75;;;;;;;4.69;37.65;101976.81;5052197;28;20425;-69
2022/01/18 02:51:34;;;;;;;3.88;3.28;;;;;;;4.71;37.63;101975.00;5052229;28;20987;-69
2022/01/18 02:54:03;;;;;;;3.83;1.87;;;;;;;4.77;37.56;101977.38;5052440;28;20417;-69
2022/01/18 02:56:34;;;;;;;3.40;1.63;;;;;;;4.68;37.83;101975.09;5050771;28;20886;-69
2022/01/18 02:59:08;;;;;;;2.57;1.77;;;;;;;4.75;37.79;101985.31;5051782;28;20491;-69
2022/01/18 03:04:19;;;;;;;3.75;2.22;;;;;;;4.65;37.93;101993.59;5051819;28;20482;-69
2022/01/18 03:06:46;;;;;;;3.53;2.10;;;;;;;4.61;38.59;102000.72;5052084;28;20495;-69
2022/01/18 03:09:13;;;;;;;3.38;2.00;;;;;;;4.73;38.31;101999.44;5051755;28;20423;-70
2022/01/18 03:11:41;;;;;;;4.37;2.07;;;;;;;4.67;38.54;102007.53;5051948;28;20447;-69
2022/01/18 03:14:08;;;;;;;4.28;2.30;;;;;;;4.66;38.51;102006.66;5051939;28;20417;-69
2022/01/18 03:16:36;;;;;;;3.40;1.90;;;;;;;4.63;38.89;102017.28;5045742;28;20496;-74
2022/01/18 03:19:03;;;;;;;3.42;1.90;;;;;;;4.60;39.24;102034.00;5041358;28;20436;-69
2022/01/18 03:21:30;;;;;;;4.27;2.00;;;;;;;4.61;39.10;102035.69;5051546;28;20499;-68
2022/01/18 03:24:12;;;;;;;4.82;2.25;;;;;;;4.61;39.17;102051.44;5051396;28;20412;-69
2022/01/18 03:28:04;;;;;;;3.72;2.08;;;;;;;4.64;39.16;102054.88;5050430;28;20466;-69
2022/01/18 03:29:27;;;;;;;3.17;1.70;;;;;;;4.61;39.42;102059.31;5051111;28;20404;-69
2022/01/18 03:31:54;;;;;;;2.83;1.42;;;;;;;4.68;39.46;102072.22;5051346;28;20409;-69
2022/01/18 03:34:21;;;;;;;2.78;1.80;;;;;;;4.67;39.52;102060.88;5050708;28;20491;-68
2022/01/18 03:36:48;;;;;;;40.03;28.27;;;;;;;4.68;39.49;102069.59;5051483;28;20786;-69
2022/01/18 03:39:16;;;;;;;5.50;2.80;;;;;;;4.63;39.76;102085.53;5051073;28;20432;-69
2022/01/18 03:41:43;;;;;;;4.25;3.00;;;;;;;4.65;39.63;102098.59;5051517;28;20443;-68
2022/01/18 03:44:10;;;;;;;8.32;7.50;;;;;;;4.71;39.57;102111.50;5051379;28;20404;-69
2022/01/18 03:46:38;;;;;;;11.73;8.15;;;;;;;4.71;39.83;102129.88;5050960;28;20408;-69
2022/01/18 03:49:06;;;;;;;9.73;8.43;;;;;;;4.63;40.05;102127.53;5050066;28;20416;-69
2022/01/18 03:51:33;;;;;;;8.35;7.68;;;;;;;4.60;40.07;102125.00;5050460;28;20914;-69
2022/01/18 03:54:00;;;;;;;10.02;9.13;;;;;;;4.63;40.25;102124.91;5050979;28;20484;-69
2022/01/18 03:56:28;;;;;;;5.80;5.20;;;;;;;4.53;40.63;102121.75;5050918;28;20405;-69
2022/01/18 03:58:55;;;;;;;4.63;3.25;;;;;;;4.54;40.79;102123.47;5050170;28;20514;-69
2022/01/18 04:01:22;;;;;;;4.20;2.92;;;;;;;4.52;40.88;102116.53;5050864;28;20447;-69
2022/01/18 04:03:50;;;;;;;4.65;3.67;;;;;;;4.53;40.97;102115.63;5050521;28;20942;-68
2022/01/18 04:06:18;;;;;;;3.95;3.25;;;;;;;4.49;40.84;102114.03;5050509;28;20487;-69
2022/01/18 04:08:45;;;;;;;6.25;4.68;;;;;;;4.50;40.98;102108.75;5049904;28;20416;-69
2022/01/18 04:11:12;;;;;;;6.13;5.53;;;;;;;4.47;41.28;102113.22;5049780;28;20507;-70
2022/01/18 04:13:39;;;;;;;5.60;4.40;;;;;;;4.45;41.31;102118.53;5048450;28;20413;-69
2022/01/18 04:16:06;;;;;;;6.78;5.88;;;;;;;4.44;41.30;102103.72;5049573;28;20990;-69
2022/01/18 04:18:47;;;;;;;4.97;4.40;;;;;;;4.43;41.43;102104.59;5034361;28;20413;-69
2022/01/18 04:26:56;;;;;;;6.85;4.90;;;;;;;4.36;41.92;102103.09;5050288;28;20538;-69
2022/01/18 04:29:24;;;;;;;6.90;5.53;;;;;;;4.26;42.24;102109.56;5050491;28;20412;-69
2022/01/18 04:31:51;;;;;;;4.85;3.53;;;;;;;4.25;42.23;102102.63;5050114;28;20487;-69
2022/01/18 04:34:18;;;;;;;5.63;4.00;;;;;;;4.29;42.17;102109.47;5049821;28;20427;-70
2022/01/18 04:36:48;;;;;;;7.15;5.43;;;;;;;4.41;41.95;102116.91;5050420;28;20432;-69
2022/01/18 04:39:15;;;;;;;4.75;3.88;;;;;;;4.35;42.16;102122.38;5050099;28;20451;-70
2022/01/18 04:41:44;;;;;;;5.00;3.25;;;;;;;4.28;42.26;102129.59;5049903;28;20841;-69
2022/01/18 04:49:39;;;;;;;5.07;3.73;;;;;;;4.22;42.75;102142.94;5049723;28;20586;-69
2022/01/18 04:52:10;;;;;;;8.77;5.63;;;;;;;4.28;42.43;102140.09;5049748;28;20505;-69
2022/01/18 04:54:41;;;;;;;7.22;4.68;;;;;;;4.37;42.60;102146.78;5050111;28;20409;-69
2022/01/18 04:59:53;;;;;;;6.85;3.70;;;;;;;4.46;42.65;102150.88;5050495;28;20479;-69
2022/01/18 05:02:20;;;;;;;6.38;3.40;;;;;;;4.47;42.53;102161.31;5049472;28;20412;-69
2022/01/18 05:04:47;;;;;;;7.20;5.53;;;;;;;4.47;42.18;102170.97;5049587;28;20448;-69
2022/01/18 05:07:17;;;;;;;6.03;4.32;;;;;;;4.37;42.51;102173.03;5049600;28;20441;-69
2022/01/18 05:09:49;;;;;;;5.65;3.80;;;;;;;4.50;42.23;102178.72;5049387;28;20412;-68
2022/01/18 05:12:31;;;;;;;6.20;4.90;;;;;;;4.49;42.25;102185.75;5049663;28;20487;-68
2022/01/18 05:14:59;;;;;;;5.40;3.70;;;;;;;4.48;42.21;102180.53;5049789;28;20416;-70
2022/01/18 05:17:41;;;;;;;9.68;4.53;;;;;;;4.40;42.46;102184.28;5034370;28;20404;-69
2022/01/18 05:20:39;;;;;;;10.38;8.88;;;;;;;4.50;42.44;102182.22;5049136;28;20433;-69
2022/01/18 05:23:08;;;;;;;10.25;6.35;;;;;;;4.41;42.35;102186.00;5049288;28;20471;-69
2022/01/18 05:25:36;;;;;;;4.97;3.40;;;;;;;4.45;42.49;102185.91;5049155;28;20487;-69
2022/01/18 05:28:05;;;;;;;6.28;4.25;;;;;;;4.48;42.25;102201.53;5049190;28;20444;-69
2022/01/18 05:30:33;;;;;;;7.95;5.18;;;;;;;4.43;42.00;102206.94;5049498;28;20838;-69
2022/01/18 05:33:00;;;;;;;7.05;4.53;;;;;;;4.40;42.34;102233.31;5049160;28;20496;-69
2022/01/18 05:35:27;;;;;;;32.25;27.83;;;;;;;4.39;42.21;102234.19;5049290;28;20450;-69
2022/01/18 05:37:54;;;;;;;5.55;3.70;;;;;;;4.51;42.11;102240.81;5048169;28;20419;-70
2022/01/18 05:40:23;;;;;;;15.17;13.50;;;;;;;4.53;41.89;102247.72;5046905;28;20924;-69
2022/01/18 05:42:50;;;;;;;8.43;5.40;;;;;;;4.46;42.16;102247.97;5047020;28;20413;-71
2022/01/18 05:45:17;;;;;;;9.10;6.45;;;;;;;4.46;42.32;102246.22;5046823;28;20791;-69
2022/01/18 05:47:45;;;;;;;10.60;7.00;;;;;;;4.41;42.67;102261.25;5046585;28;21012;-69
2022/01/18 05:50:13;;;;;;;12.93;9.00;;;;;;;4.49;42.07;102253.13;5046742;28;20873;-69
2022/01/18 05:52:41;;;;;;;18.50;15.27;;;;;;;4.46;42.12;102250.59;5045598;28;20416;-70
2022/01/18 05:55:10;;;;;;;15.15;9.98;;;;;;;4.53;42.01;102258.22;5046905;28;20914;-69
2022/01/18 05:57:38;;;;;;;18.08;14.93;;;;;;;4.54;42.05;102267.81;5048739;28;20488;-70
2022/01/18 06:00:08;;;;;;;36.63;28.00;;;;;;;4.57;41.85;102265.06;5048618;28;20929;-69
2022/01/18 06:02:43;;;;;;;13.27;10.37;;;;;;;4.65;41.77;102258.72;5048845;28;20985;-70
2022/01/18 06:07:55;;;;;;;14.25;12.77;;;;;;;6.13;39.10;102268.28;5048891;28;20415;-69
2022/01/18 06:10:22;;;;;;;8.55;7.70;;;;;;;7.04;36.92;102275.09;5048520;28;20451;-69
2022/01/18 06:12:50;;;;;;;6.85;4.47;;;;;;;7.88;35.60;102280.16;5049640;28;20483;-69
2022/01/18 06:15:17;;;;;;;5.47;4.10;;;;;;;8.53;34.35;102284.09;5052660;28;20443;-69
2022/01/18 06:17:45;;;;;;;6.28;4.68;;;;;;;9.47;32.86;102284.63;5026992;28;20413;-71
2022/01/18 06:20:12;;;;;;;6.93;5.53;;;;;;;10.28;31.79;102302.25;5052382;28;20464;-70
2022/01/18 06:22:39;;;;;;;16.67;13.35;;;;;;;10.91;30.38;102299.56;5052642;28;20448;-69
2022/01/18 06:25:08;;;;;;;11.10;9.30;;;;;;;11.82;28.96;102304.66;5053015;28;20412;-68
2022/01/18 06:27:35;;;;;;;8.98;6.25;;;;;;;12.40;28.11;102310.72;5052551;28;20499;-69
2022/01/18 06:30:09;;;;;;;12.52;10.70;;;;;;;13.16;26.94;102310.09;5052543;28;20413;-69
2022/01/18 06:32:37;;;;;;;7.13;6.18;;;;;;;13.77;25.87;102314.78;5052535;28;20503;-69
2022/01/18 06:35:06;;;;;;;10.10;7.63;;;;;;;14.36;25.17;102324.75;5052343;28;20474;-70
2022/01/18 06:37:33;;;;;;;9.73;8.73;;;;;;;15.09;24.45;102322.91;5052232;28;20879;-69
2022/01/18 06:40:01;;;;;;;6.93;4.67;;;;;;;15.65;23.71;102325.66;5052434;28;20503;-69
2022/01/18 06:42:28;;;;;;;9.02;5.88;;;;;;;16.65;22.37;102330.16;5052139;28;20470;-68
2022/01/18 06:44:55;;;;;;;6.90;5.30;;;;;;;17.21;21.76;102332.56;5052198;28;20421;-70
2022/01/18 06:47:24;;;;;;;7.28;6.57;;;;;;;18.44;20.58;102337.88;5050416;28;20417;-69
2022/01/18 06:49:51;;;;;;;7.07;5.95;;;;;;;17.97;20.52;102333.09;5052025;28;20463;-70
2022/01/18 06:52:18;;;;;;;5.95;4.85;;;;;;;18.93;19.72;102349.50;5052249;28;20440;-69
2022/01/18 06:54:45;;;;;;;5.30;4.77;;;;;;;19.76;18.74;102335.47;5050834;28;21041;-71
2022/01/18 06:57:12;;;;;;;7.83;6.10;;;;;;;19.99;18.70;102354.75;5051970;28;20491;-69
2022/01/18 06:59:39;;;;;;;7.23;6.53;;;;;;;20.15;18.42;102354.97;5051673;28;20951;-70
2022/01/18 07:02:06;;;;;;;15.50;4.33;;;;;;;21.50;17.31;102358.59;5050772;28;20428;-69
2022/01/18 07:04:35;;;;;;;12.30;4.35;;;;;;;21.05;17.77;102356.88;5050633;28;20409;-71
2022/01/18 07:07:02;;;;;;;4.68;3.95;;;;;;;22.08;16.46;102357.84;5050611;28;20910;-70
2022/01/18 07:09:28;;;;;;;5.82;3.40;;;;;;;22.65;15.93;102375.22;5051680;28;20906;-68
2022/01/18 07:11:57;;;;;;;7.78;3.75;;;;;;;22.57;15.83;102374.22;5051651;28;20415;-70
2022/01/18 07:14:24;;;;;;;4.90;3.50;;;;;;;23.16;15.55;102374.09;5051405;28;20456;-69
2022/01/18 07:16:51;;;;;;;5.55;3.95;;;;;;;24.00;14.66;102363.75;5050042;28;20408;-70
2022/01/18 07:19:18;;;;;;;7.25;4.38;;;;;;;24.24;14.19;102358.41;5030232;28;20417;-69
2022/01/18 07:21:47;;;;;;;6.97;3.78;;;;;;;25.65;13.28;102368.81;5051493;28;20499;-71
2022/01/18 07:24:19;;;;;;;5.00;4.47;;;;;;;25.60;13.38;102379.34;5050685;28;20408;-71
2022/01/18 07:26:46;;;;;;;5.28;4.00;;;;;;;25.79;13.18;102378.81;5051140;28;20511;-70
2022/01/18 07:29:13;;;;;;;5.75;4.70;;;;;;;27.07;12.52;102371.06;5050894;28;20989;-71
2022/01/18 07:31:40;;;;;;;7.20;5.40;;;;;;;25.96;12.88;102379.47;5050571;28;20413;-71
2022/01/18 07:34:07;;;;;;;7.63;6.20;;;;;;;27.01;12.31;102380.00;5051444;28;20499;-71
2022/01/18 07:36:34;;;;;;;8.57;6.60;;;;;;;27.77;11.92;102390.19;5050294;28;20849;-70
2022/01/18 07:39:03;;;;;;;9.63;7.30;;;;;;;27.07;11.84;102379.22;5051599;28;20491;-69
2022/01/18 07:41:30;;;;;;;12.32;11.02;;;;;;;26.97;12.37;102390.44;5051355;28;20510;-70
2022/01/18 07:43:57;;;;;;;9.73;6.55;;;;;;;27.40;11.67;102389.53;5050991;28;20413;-71
2022/01/18 07:46:24;;;;;;;10.50;9.13;;;;;;;27.55;11.94;102387.53;5050930;28;20508;-70
2022/01/18 07:48:51;;;;;;;10.32;7.82;;;;;;;27.88;11.50;102384.22;5050657;28;20523;-70
2022/01/18 07:51:18;;;;;;;7.70;6.80;;;;;;;27.73;11.36;102384.28;5050226;28;20491;-71
2022/01/18 07:53:44;;;;;;;7.40;6.45;;;;;;;28.78;10.85;102378.63;5051048;28;20409;-71
2022/01/18 07:56:13;;;;;;;7.97;5.32;;;;;;;28.53;10.92;102381.09;5049654;28;20412;-71
2022/01/18 07:58:40;;;;;;;7.88;6.97;;;;;;;28.92;10.89;102380.28;5050567;28;20511;-70
2022/01/18 08:01:07;;;;;;;5.60;5.10;;;;;;;29.71;10.40;102383.22;5051277;28;20511;-71
2022/01/18 08:03:34;;;;;;;6.97;6.28;;;;;;;29.70;10.28;102381.47;5051129;28;20417;-71
2022/01/18 08:06:02;;;;;;;5.30;4.00;;;;;;;29.06;10.65;102378.41;5050679;28;20413;-70
2022/01/18 08:08:29;;;;;;;7.20;4.90;;;;;;;28.81;10.74;102386.38;5050764;28;20482;-70
2022/01/18 08:10:56;;;;;;;9.05;4.22;;;;;;;28.98;10.47;102397.72;5050537;28;20412;-70
2022/01/18 08:13:29;;;;;;;9.82;5.63;;;;;;;29.95;9.87;102389.84;5050714;28;20499;-69
2022/01/18 08:16:09;;;;;;;7.68;4.60;;;;;;;28.92;10.48;102401.28;5050536;28;20413;-69
2022/01/18 08:18:37;;;;;;;10.07;5.43;;;;;;;30.72;9.63;102407.13;5034772;28;20412;-75
2022/01/18 08:21:04;;;;;;;5.55;4.63;;;;;;;29.32;10.10;102412.22;5048468;28;20520;-72
2022/01/18 08:23:31;;;;;;;9.38;6.38;;;;;;;30.08;9.87;102421.75;5050494;28;20499;-69
2022/01/18 08:26:00;;;;;;;7.57;6.38;;;;;;;30.78;9.52;102416.34;5050530;28;20420;-70
2022/01/18 08:28:28;;;;;;;8.45;4.85;;;;;;;29.82;10.00;102425.41;5050531;28;20412;-70
2022/01/18 08:30:55;;;;;;;15.30;13.68;;;;;;;31.97;8.77;102437.38;5049450;28;20488;-70
2022/01/18 08:33:23;;;;;;;8.77;5.97;;;;;;;31.44;8.94;102433.28;5050228;28;20405;-72
2022/01/18 08:35:52;;;;;;;34.13;30.58;;;;;;;30.24;9.47;102437.66;5050132;28;20483;-72
2022/01/18 08:38:22;;;;;;;8.95;7.60;;;;;;;31.35;8.92;102446.44;5049826;28;20432;-70
2022/01/18 08:40:49;;;;;;;13.95;9.48;;;;;;;30.76;9.05;102440.34;5050018;28;20432;-72
2022/01/18 08:43:16;;;;;;;14.82;11.50;;;;;;;32.64;8.24;102451.13;5049874;28;20500;-71
2022/01/18 08:45:44;;;;;;;28.80;25.58;;;;;;;32.27;8.45;102445.69;5050262;28;20591;-72
2022/01/18 08:48:11;;;;;;;25.77;21.43;;;;;;;33.07;7.99;102441.78;5049487;28;20445;-72
2022/01/18 08:50:38;;;;;;;13.13;11.70;;;;;;;33.46;7.83;102442.22;5048394;28;20417;-72
2022/01/18 08:53:05;;;;;;;34.22;30.70;;;;;;;33.62;7.76;102436.03;5050003;28;20405;-71
2022/01/18 08:55:34;;;;;;;9.00;6.70;;;;;;;32.67;7.97;102434.22;5049614;28;20512;-73
2022/01/18 08:58:01;;;;;;;14.23;12.77;;;;;;;31.65;8.48;102445.75;5049850;28;20428;-72
2022/01/18 09:00:28;;;;;;;24.42;21.02;;;;;;;31.71;8.73;102436.63;5049665;28;20515;-71
2022/01/18 09:02:57;;;;;;;36.17;32.53;;;;;;;32.90;8.51;102442.47;5048701;28;20408;-72
2022/01/18 09:05:24;;;;;;;20.55;18.55;;;;;;;31.23;9.22;102438.13;5049349;28;20507;-73
2022/01/18 09:07:52;;;;;;;22.00;19.95;;;;;;;32.51;8.60;102447.47;5049737;28;20404;-73
2022/01/18 09:10:19;;;;;;;12.80;10.52;;;;;;;32.70;8.54;102450.19;5049786;28;20413;-72
2022/01/18 09:12:46;;;;;;;16.60;14.85;;;;;;;32.90;8.36;102437.00;5050226;28;20458;-70
2022/01/18 09:15:13;;;;;;;11.75;7.55;;;;;;;34.80;7.27;102441.16;5049413;28;20424;-73
2022/01/18 09:17:41;;;;;;;13.25;7.80;;;;;;;34.84;7.15;102431.31;5049323;28;20901;-71
2022/01/18 09:20:12;;;;;;;17.15;12.80;;;;;;;32.96;7.94;102420.66;5034671;28;22733;-73
2022/01/18 09:22:41;;;;;;;20.38;17.42;;;;;;;34.05;7.43;102428.41;5049226;28;20440;-72
2022/01/18 09:25:12;;;;;;;17.10;14.90;;;;;;;32.90;7.77;102412.28;5048022;28;20500;-72
2022/01/18 09:27:39;;;;;;;12.07;9.75;;;;;;;31.75;8.49;102421.41;5049073;28;20440;-72
2022/01/18 09:30:07;;;;;;;9.02;6.75;;;;;;;31.83;8.25;102401.09;5049308;28;20413;-74
2022/01/18 09:32:34;;;;;;;13.57;10.88;;;;;;;32.49;8.08;102402.16;5049101;28;20455;-73
2022/01/18 09:35:02;;;;;;;13.73;8.70;;;;;;;31.74;8.23;102406.88;5049101;28;20503;-72
2022/01/18 09:37:30;;;;;;;13.93;6.45;;;;;;;31.50;8.01;102396.81;5047873;28;20447;-71
2022/01/18 09:39:57;;;;;;;13.63;7.80;;;;;;;32.67;7.79;102409.50;5046705;28;20934;-72
2022/01/18 09:42:31;;;;;;;9.00;6.10;;;;;;;31.68;8.13;102402.31;5049166;28;20981;-71
2022/01/18 09:45:00;;;;;;;10.27;7.00;;;;;;;32.48;7.95;102401.31;5049347;28;20412;-71
2022/01/18 09:47:27;;;;;;;10.85;6.00;;;;;;;31.13;8.20;102396.72;5049421;28;20484;-72
2022/01/18 09:49:55;;;;;;;10.40;4.93;;;;;;;30.79;8.45;102400.75;5053597;28;20783;-71
2022/01/18 09:52:22;;;;;;;9.05;5.03;;;;;;;31.59;8.33;102406.44;5050568;28;20878;-73
2022/01/18 09:54:50;;;;;;;10.57;5.20;;;;;;;33.47;7.61;102410.91;5049240;28;20487;-72
2022/01/18 09:57:17;;;;;;;15.02;6.85;;;;;;;32.84;7.78;102407.75;5053347;28;20491;-72
2022/01/18 09:59:44;;;;;;;6.63;5.15;;;;;;;32.62;7.68;102399.22;5053068;28;20448;-69
2022/01/18 10:02:11;;;;;;;8.00;3.55;;;;;;;32.05;7.82;102402.31;5052759;28;20814;-70
2022/01/18 10:04:41;;;;;;;11.02;7.85;;;;;;;32.52;7.66;102405.25;5052882;28;20455;-69
2022/01/18 10:07:08;;;;;;;29.27;26.00;;;;;;;32.33;7.71;102395.41;5052539;28;20424;-70
2022/01/18 10:09:35;;;;;;;10.30;6.20;;;;;;;32.89;7.51;102409.81;5053010;28;20417;-69
2022/01/18 10:12:08;;;;;;;14.68;13.38;;;;;;;32.17;7.92;102410.59;5052754;28;20419;-71
2022/01/18 10:14:36;;;;;;;10.80;9.70;;;;;;;30.58;8.45;102413.75;5052389;28;20511;-69
2022/01/18 10:17:05;;;;;;;10.75;9.63;;;;;;;29.91;8.82;102402.28;5052585;28;20409;-70
2022/01/18 10:19:33;;;;;;;12.13;8.70;;;;;;;29.89;9.05;102407.09;5036297;28;20490;-70
2022/01/18 10:22:15;;;;;;;9.25;7.53;;;;;;;29.38;9.34;102399.63;5052521;28;20468;-71
2022/01/18 10:24:42;;;;;;;8.07;6.40;;;;;;;30.29;8.64;102390.50;5051322;28;20423;-73
2022/01/18 10:27:13;;;;;;;4.50;3.80;;;;;;;29.98;8.85;102385.84;5052658;28;20448;-71
2022/01/18 10:29:42;;;;;;;10.88;9.10;;;;;;;29.49;9.33;102391.63;5052587;28;20412;-70
2022/01/18 10:32:17;;;;;;;7.37;6.00;;;;;;;30.79;8.87;102387.09;5052325;28;20427;-71
2022/01/18 10:37:31;;;;;;;11.30;9.23;;;;;;;30.34;9.02;102382.53;5051497;28;20399;-71
2022/01/18 10:40:00;;;;;;;14.40;11.55;;;;;;;29.49;9.47;102380.69;5052093;28;20408;-70
2022/01/18 10:42:33;;;;;;;10.03;7.17;;;;;;;29.43;9.71;102395.19;5051318;28;20435;-70
2022/01/18 10:45:03;;;;;;;11.10;5.70;;;;;;;27.89;9.85;102390.47;5050903;28;20479;-70
2022/01/18 10:47:30;;;;;;;9.73;6.45;;;;;;;28.78;9.96;102394.97;5052115;28;20456;-70
2022/01/18 10:49:59;;;;;;;10.40;7.03;;;;;;;28.58;9.39;102407.75;5052311;28;20428;-70
2022/01/18 10:52:28;;;;;;;11.18;6.50;;;;;;;27.57;10.08;102404.53;5051898;28;20480;-70
2022/01/18 10:54:56;;;;;;;20.33;17.50;;;;;;;26.77;10.33;102397.56;5051885;28;20790;-69
2022/01/18 10:57:26;;;;;;;8.43;5.70;;;;;;;24.78;11.66;102396.38;5051929;28;20420;-69
2022/01/18 10:59:59;;;;;;;8.43;6.53;;;;;;;23.39;12.47;102401.28;5050124;28;20440;-70
2022/01/18 11:02:27;;;;;;;8.10;5.40;;;;;;;25.76;11.25;102409.03;5051768;28;20421;-69
2022/01/18 11:04:55;;;;;;;7.72;4.57;;;;;;;23.02;13.25;102403.69;5051582;28;20508;-69
2022/01/18 11:07:25;;;;;;;11.48;8.43;;;;;;;23.37;13.13;102411.41;5051238;28;20758;-69
2022/01/18 11:09:52;;;;;;;7.88;5.20;;;;;;;22.43;13.56;102412.66;5051466;28;20416;-69
2022/01/18 11:12:23;;;;;;;10.98;7.85;;;;;;;24.52;12.11;102413.78;5050539;28;20933;-71
2022/01/18 11:15:00;;;;;;;8.43;5.45;;;;;;;24.42;12.47;102396.06;5051439;28;20447;-69
2022/01/18 11:17:38;;;;;;;9.50;5.87;;;;;;;22.91;13.61;102410.19;5050722;28;20852;-69
2022/01/18 11:20:06;;;;;;;17.63;10.98;;;;;;;23.81;12.84;102418.31;5036109;28;20956;-69
2022/01/18 11:22:34;;;;;;;10.52;5.82;;;;;;;22.80;13.82;102401.41;5050624;28;20523;-70
2022/01/18 11:25:03;;;;;;;12.88;9.43;;;;;;;22.82;13.29;102413.94;5051432;28;20470;-69
2022/01/18 11:27:34;;;;;;;8.45;6.43;;;;;;;23.05;13.37;102416.84;5051222;28;20786;-69
2022/01/18 11:30:02;;;;;;;14.02;9.68;;;;;;;21.96;14.51;102407.72;5051117;28;20482;-69
2022/01/18 11:32:31;;;;;;;20.83;18.88;;;;;;;22.10;14.04;102399.03;5050563;28;20491;-69
2022/01/18 11:35:05;;;;;;;9.75;6.85;;;;;;;21.33;15.02;102401.56;5050340;28;20416;-67
2022/01/18 11:37:40;;;;;;;11.98;7.53;;;;;;;20.90;15.47;102395.13;5051423;28;20952;-68
2022/01/18 11:40:12;;;;;;;10.13;7.40;;;;;;;20.59;15.44;102397.38;5050739;28;20499;-68
2022/01/18 11:42:49;;;;;;;9.47;5.87;;;;;;;20.69;15.63;102394.59;5050896;28;20433;-68
2022/01/18 11:45:38;;;;;;;8.27;5.20;;;;;;;19.93;16.40;102401.94;5052119;28;20500;-70
2022/01/18 11:48:11;;;;;;;11.60;7.10;;;;;;;18.18;17.75;102408.13;5050847;28;20416;-69
2022/01/18 11:50:41;;;;;;;12.57;8.32;;;;;;;17.11;18.18;102407.50;5050656;28;21084;-69
2022/01/18 11:53:39;;;;;;;13.10;7.90;;;;;;;16.18;19.28;102411.47;5050445;28;20412;-68
2022/01/18 11:56:12;;;;;;;23.42;16.42;;;;;;;15.16;20.02;102409.56;5050525;28;20420;-69
2022/01/18 11:58:42;;;;;;;14.88;8.20;;;;;;;14.02;21.42;102412.47;5050667;28;20790;-69
2022/01/18 12:01:10;;;;;;;8.80;6.28;;;;;;;13.70;22.05;102402.25;5050693;28;20624;-71
2022/01/18 12:03:47;;;;;;;15.02;11.50;;;;;;;13.25;22.44;102401.75;5049553;28;20478;-71
2022/01/18 12:06:14;;;;;;;11.70;5.47;;;;;;;12.43;23.28;102403.56;5049614;28;20416;-71
2022/01/18 12:08:44;;;;;;;32.75;7.50;;;;;;;11.35;24.30;102394.19;5050584;28;20412;-71
2022/01/18 12:11:13;;;;;;;12.45;5.00;;;;;;;10.99;24.83;102410.47;5050104;28;20462;-71
2022/01/18 12:13:43;;;;;;;18.50;3.92;;;;;;;10.57;25.35;102396.91;5050581;28;20488;-70
2022/01/18 12:16:22;;;;;;;12.13;5.00;;;;;;;10.39;25.63;102400.59;5050300;28;20813;-71
2022/01/18 12:19:09;;;;;;;8.65;5.30;;;;;;;10.15;26.51;102395.66;5035810;28;20411;-71
2022/01/18 12:21:44;;;;;;;10.75;5.15;;;;;;;9.68;27.27;102387.59;5049961;28;20930;-71
2022/01/18 12:24:22;;;;;;;12.52;4.60;;;;;;;9.77;26.68;102385.34;5050116;28;20423;-72
2022/01/18 12:26:59;;;;;;;9.77;4.32;;;;;;;9.42;26.76;102385.34;5050123;28;20409;-70
2022/01/18 12:35:25;;;;;;;9.75;3.63;;;;;;;9.20;26.61;102371.53;5046192;28;20413;-71